sensor_id;sensor_type;location;lat;lon;timestamp;P1;durP1;ratioP1;P2;durP2;ratioP2
32186;SDS011;18686;53.084;8.872;2024-03-29T00:01:03;8.73;;;2.38;;
32186;SDS011;18686;53.084;8.872;2024-03-29T00:03:29;14.43;;;2.65;;
32186;SDS011;18686;53.084;8.872;2024-03-29T00:05:55;8.88;;;2.65;;
32186;SDS011;18686;53.084;8.872;2024-03-29T00:08:23;6.40;;;2.47;;
32186;SDS011;18686;53.084;8.872;2024-03-29T00:10:49;9.40;;;2.50;;
32186;SDS011;18686;53.084;8.872;2024-03-29T00:13:16;4.40;;;2.25;;
32186;SDS011;18686;53.084;8.872;2024-03-29T00:15:42;11.98;;;2.20;;
32186;SDS011;18686;53.084;8.872;2024-03-29T00:18:11;11.15;;;2.42;;
32186;SDS011;18686;53.084;8.872;2024-03-29T00:20:37;5.53;;;2.28;;
32186;SDS011;18686;53.084;8.872;2024-03-29T00:23:04;9.65;;;2.17;;
32186;SDS011;18686;53.084;8.872;2024-03-29T00:25:31;11.45;;;1.88;;
32186;SDS011;18686;53.084;8.872;2024-03-29T00:27:58;7.13;;;2.20;;
32186;SDS011;18686;53.084;8.872;2024-03-29T00:30:24;10.77;;;2.13;;
32186;SDS011;18686;53.084;8.872;2024-03-29T00:32:50;10.77;;;2.00;;
32186;SDS011;18686;53.084;8.872;2024-03-29T00:35:17;11.02;;;2.20;;
32186;SDS011;18686;53.084;8.872;2024-03-29T00:37:43;9.43;;;2.28;;
32186;SDS011;18686;53.084;8.872;2024-03-29T00:40:10;12.25;;;2.63;;
32186;SDS011;18686;53.084;8.872;2024-03-29T00:42:38;9.70;;;2.20;;
32186;SDS011;18686;53.084;8.872;2024-03-29T00:45:04;8.75;;;2.17;;
32186;SDS011;18686;53.084;8.872;2024-03-29T00:47:31;11.50;;;2.28;;
32186;SDS011;18686;53.084;8.872;2024-03-29T00:49:58;8.68;;;1.77;;
32186;SDS011;18686;53.084;8.872;2024-03-29T00:52:24;9.15;;;2.00;;
32186;SDS011;18686;53.084;8.872;2024-03-29T00:54:50;7.63;;;1.92;;
32186;SDS011;18686;53.084;8.872;2024-03-29T00:57:17;5.57;;;1.58;;
32186;SDS011;18686;53.084;8.872;2024-03-29T00:59:44;8.13;;;1.80;;
32186;SDS011;18686;53.084;8.872;2024-03-29T01:02:12;10.20;;;2.13;;
32186;SDS011;18686;53.084;8.872;2024-03-29T01:04:38;9.68;;;2.03;;
32186;SDS011;18686;53.084;8.872;2024-03-29T01:07:04;8.25;;;2.30;;
32186;SDS011;18686;53.084;8.872;2024-03-29T01:09:30;7.88;;;1.77;;
32186;SDS011;18686;53.084;8.872;2024-03-29T01:11:57;10.50;;;2.10;;
32186;SDS011;18686;53.084;8.872;2024-03-29T01:14:23;9.60;;;1.90;;
32186;SDS011;18686;53.084;8.872;2024-03-29T01:16:51;8.30;;;1.80;;
32186;SDS011;18686;53.084;8.872;2024-03-29T01:19:19;7.57;;;2.17;;
32186;SDS011;18686;53.084;8.872;2024-03-29T01:21:45;6.28;;;1.80;;
32186;SDS011;18686;53.084;8.872;2024-03-29T01:24:11;10.68;;;1.77;;
32186;SDS011;18686;53.084;8.872;2024-03-29T01:26:38;9.52;;;1.95;;
32186;SDS011;18686;53.084;8.872;2024-03-29T01:29:04;7.53;;;1.63;;
32186;SDS011;18686;53.084;8.872;2024-03-29T01:31:30;6.93;;;1.90;;
32186;SDS011;18686;53.084;8.872;2024-03-29T01:33:58;6.65;;;1.50;;
32186;SDS011;18686;53.084;8.872;2024-03-29T01:36:24;5.15;;;1.60;;
32186;SDS011;18686;53.084;8.872;2024-03-29T01:38:50;8.68;;;1.60;;
32186;SDS011;18686;53.084;8.872;2024-03-29T01:41:17;10.18;;;1.73;;
32186;SDS011;18686;53.084;8.872;2024-03-29T01:43:43;9.45;;;1.70;;
32186;SDS011;18686;53.084;8.872;2024-03-29T01:46:10;8.77;;;1.15;;
32186;SDS011;18686;53.084;8.872;2024-03-29T01:48:37;4.43;;;1.40;;
32186;SDS011;18686;53.084;8.872;2024-03-29T01:51:06;6.35;;;1.58;;
32186;SDS011;18686;53.084;8.872;2024-03-29T01:53:33;9.50;;;1.50;;
32186;SDS011;18686;53.084;8.872;2024-03-29T01:56:01;8.70;;;1.52;;
32186;SDS011;18686;53.084;8.872;2024-03-29T01:58:28;7.60;;;1.63;;
32186;SDS011;18686;53.084;8.872;2024-03-29T02:00:57;9.68;;;1.98;;
32186;SDS011;18686;53.084;8.872;2024-03-29T02:03:26;7.30;;;1.38;;
32186;SDS011;18686;53.084;8.872;2024-03-29T02:05:53;7.68;;;1.42;;
32186;SDS011;18686;53.084;8.872;2024-03-29T02:08:24;9.95;;;1.50;;
32186;SDS011;18686;53.084;8.872;2024-03-29T02:10:51;6.50;;;1.25;;
32186;SDS011;18686;53.084;8.872;2024-03-29T02:13:19;5.25;;;1.20;;
32186;SDS011;18686;53.084;8.872;2024-03-29T02:15:46;3.63;;;1.30;;
32186;SDS011;18686;53.084;8.872;2024-03-29T02:18:13;8.32;;;2.05;;
32186;SDS011;18686;53.084;8.872;2024-03-29T02:20:40;8.00;;;1.25;;
32186;SDS011;18686;53.084;8.872;2024-03-29T02:23:08;7.00;;;1.00;;
32186;SDS011;18686;53.084;8.872;2024-03-29T02:25:39;6.13;;;1.10;;
32186;SDS011;18686;53.084;8.872;2024-03-29T02:28:06;12.45;;;1.58;;
32186;SDS011;18686;53.084;8.872;2024-03-29T02:30:33;6.82;;;0.90;;
32186;SDS011;18686;53.084;8.872;2024-03-29T02:33:01;11.48;;;1.50;;
32186;SDS011;18686;53.084;8.872;2024-03-29T02:35:29;9.02;;;1.13;;
32186;SDS011;18686;53.084;8.872;2024-03-29T02:37:57;5.78;;;1.15;;
32186;SDS011;18686;53.084;8.872;2024-03-29T02:40:24;10.57;;;1.00;;
32186;SDS011;18686;53.084;8.872;2024-03-29T02:42:52;5.25;;;0.95;;
32186;SDS011;18686;53.084;8.872;2024-03-29T02:45:20;7.03;;;1.17;;
32186;SDS011;18686;53.084;8.872;2024-03-29T02:47:47;6.70;;;1.10;;
32186;SDS011;18686;53.084;8.872;2024-03-29T02:50:15;5.07;;;0.80;;
32186;SDS011;18686;53.084;8.872;2024-03-29T02:52:41;8.20;;;1.00;;
32186;SDS011;18686;53.084;8.872;2024-03-29T02:55:09;9.10;;;1.30;;
32186;SDS011;18686;53.084;8.872;2024-03-29T02:57:36;11.82;;;1.10;;
32186;SDS011;18686;53.084;8.872;2024-03-29T03:00:06;9.00;;;1.05;;
32186;SDS011;18686;53.084;8.872;2024-03-29T03:02:36;12.63;;;1.00;;
32186;SDS011;18686;53.084;8.872;2024-03-29T03:05:05;7.38;;;1.75;;
32186;SDS011;18686;53.084;8.872;2024-03-29T03:07:32;7.60;;;1.10;;
32186;SDS011;18686;53.084;8.872;2024-03-29T03:10:18;7.45;;;1.00;;
32186;SDS011;18686;53.084;8.872;2024-03-29T03:13:04;7.68;;;1.15;;
32186;SDS011;18686;53.084;8.872;2024-03-29T03:15:33;5.55;;;0.93;;
32186;SDS011;18686;53.084;8.872;2024-03-29T03:18:00;8.55;;;1.17;;
32186;SDS011;18686;53.084;8.872;2024-03-29T03:20:26;8.38;;;1.33;;
32186;SDS011;18686;53.084;8.872;2024-03-29T03:22:56;6.32;;;1.00;;
32186;SDS011;18686;53.084;8.872;2024-03-29T03:25:22;6.78;;;1.20;;
32186;SDS011;18686;53.084;8.872;2024-03-29T03:27:50;6.85;;;1.10;;
32186;SDS011;18686;53.084;8.872;2024-03-29T03:30:17;4.45;;;1.00;;
32186;SDS011;18686;53.084;8.872;2024-03-29T03:32:45;7.38;;;1.15;;
32186;SDS011;18686;53.084;8.872;2024-03-29T03:35:12;4.45;;;1.05;;
32186;SDS011;18686;53.084;8.872;2024-03-29T03:37:39;6.50;;;1.20;;
32186;SDS011;18686;53.084;8.872;2024-03-29T03:40:06;7.90;;;1.77;;
32186;SDS011;18686;53.084;8.872;2024-03-29T03:42:33;6.65;;;1.00;;
32186;SDS011;18686;53.084;8.872;2024-03-29T03:45:00;4.90;;;1.05;;
32186;SDS011;18686;53.084;8.872;2024-03-29T03:47:28;7.00;;;1.10;;
32186;SDS011;18686;53.084;8.872;2024-03-29T03:49:56;11.13;;;1.00;;
32186;SDS011;18686;53.084;8.872;2024-03-29T03:52:23;4.35;;;1.05;;
32186;SDS011;18686;53.084;8.872;2024-03-29T03:54:49;6.38;;;1.00;;
32186;SDS011;18686;53.084;8.872;2024-03-29T03:57:18;7.25;;;1.20;;
32186;SDS011;18686;53.084;8.872;2024-03-29T03:59:44;9.07;;;1.30;;
32186;SDS011;18686;53.084;8.872;2024-03-29T04:02:12;8.52;;;1.33;;
32186;SDS011;18686;53.084;8.872;2024-03-29T04:04:38;4.63;;;1.02;;
32186;SDS011;18686;53.084;8.872;2024-03-29T04:07:07;7.75;;;1.10;;
32186;SDS011;18686;53.084;8.872;2024-03-29T04:09:33;7.55;;;1.58;;
32186;SDS011;18686;53.084;8.872;2024-03-29T04:12:00;6.57;;;1.00;;
32186;SDS011;18686;53.084;8.872;2024-03-29T04:14:27;4.97;;;0.90;;
32186;SDS011;18686;53.084;8.872;2024-03-29T04:16:54;9.00;;;1.38;;
32186;SDS011;18686;53.084;8.872;2024-03-29T04:19:20;7.70;;;1.48;;
32186;SDS011;18686;53.084;8.872;2024-03-29T04:21:47;6.72;;;1.20;;
32186;SDS011;18686;53.084;8.872;2024-03-29T04:24:15;10.00;;;1.83;;
32186;SDS011;18686;53.084;8.872;2024-03-29T04:26:42;6.80;;;1.67;;
32186;SDS011;18686;53.084;8.872;2024-03-29T04:29:10;8.10;;;2.28;;
32186;SDS011;18686;53.084;8.872;2024-03-29T04:31:37;4.70;;;2.05;;
32186;SDS011;18686;53.084;8.872;2024-03-29T04:34:03;10.25;;;1.98;;
32186;SDS011;18686;53.084;8.872;2024-03-29T04:36:31;7.35;;;1.90;;
32186;SDS011;18686;53.084;8.872;2024-03-29T04:38:57;3.50;;;1.45;;
32186;SDS011;18686;53.084;8.872;2024-03-29T04:41:26;6.18;;;1.50;;
32186;SDS011;18686;53.084;8.872;2024-03-29T04:43:54;8.30;;;2.10;;
32186;SDS011;18686;53.084;8.872;2024-03-29T04:46:22;7.55;;;1.95;;
32186;SDS011;18686;53.084;8.872;2024-03-29T04:48:49;7.72;;;2.05;;
32186;SDS011;18686;53.084;8.872;2024-03-29T04:51:17;6.55;;;1.48;;
32186;SDS011;18686;53.084;8.872;2024-03-29T04:53:44;6.60;;;1.40;;
32186;SDS011;18686;53.084;8.872;2024-03-29T04:56:11;7.03;;;1.80;;
32186;SDS011;18686;53.084;8.872;2024-03-29T04:58:40;5.50;;;1.08;;
32186;SDS011;18686;53.084;8.872;2024-03-29T05:01:08;6.13;;;1.90;;
32186;SDS011;18686;53.084;8.872;2024-03-29T05:03:35;4.95;;;1.75;;
32186;SDS011;18686;53.084;8.872;2024-03-29T05:06:02;4.88;;;1.10;;
32186;SDS011;18686;53.084;8.872;2024-03-29T05:08:30;6.95;;;1.98;;
32186;SDS011;18686;53.084;8.872;2024-03-29T05:10:57;9.60;;;1.15;;
32186;SDS011;18686;53.084;8.872;2024-03-29T05:13:24;4.93;;;0.70;;
32186;SDS011;18686;53.084;8.872;2024-03-29T05:15:53;6.57;;;1.02;;
32186;SDS011;18686;53.084;8.872;2024-03-29T05:18:20;8.93;;;1.00;;
32186;SDS011;18686;53.084;8.872;2024-03-29T05:20:47;4.82;;;0.80;;
32186;SDS011;18686;53.084;8.872;2024-03-29T05:23:16;7.60;;;1.10;;
32186;SDS011;18686;53.084;8.872;2024-03-29T05:25:44;8.32;;;1.10;;
32186;SDS011;18686;53.084;8.872;2024-03-29T05:28:14;10.70;;;1.20;;
32186;SDS011;18686;53.084;8.872;2024-03-29T05:30:41;5.13;;;0.80;;
32186;SDS011;18686;53.084;8.872;2024-03-29T05:33:11;7.30;;;0.90;;
32186;SDS011;18686;53.084;8.872;2024-03-29T05:35:38;2.25;;;0.80;;
32186;SDS011;18686;53.084;8.872;2024-03-29T05:38:05;8.27;;;1.45;;
32186;SDS011;18686;53.084;8.872;2024-03-29T05:40:32;5.65;;;1.00;;
32186;SDS011;18686;53.084;8.872;2024-03-29T05:43:00;3.60;;;1.52;;
32186;SDS011;18686;53.084;8.872;2024-03-29T05:45:28;7.05;;;1.77;;
32186;SDS011;18686;53.084;8.872;2024-03-29T05:47:56;4.93;;;1.23;;
32186;SDS011;18686;53.084;8.872;2024-03-29T05:50:26;4.75;;;1.15;;
32186;SDS011;18686;53.084;8.872;2024-03-29T05:52:53;5.65;;;1.45;;
32186;SDS011;18686;53.084;8.872;2024-03-29T05:55:21;3.92;;;1.30;;
32186;SDS011;18686;53.084;8.872;2024-03-29T05:57:48;6.28;;;1.88;;
32186;SDS011;18686;53.084;8.872;2024-03-29T06:00:15;4.13;;;1.50;;
32186;SDS011;18686;53.084;8.872;2024-03-29T06:02:43;5.70;;;1.38;;
32186;SDS011;18686;53.084;8.872;2024-03-29T06:05:11;7.68;;;1.35;;
32186;SDS011;18686;53.084;8.872;2024-03-29T06:07:39;7.10;;;1.30;;
32186;SDS011;18686;53.084;8.872;2024-03-29T06:10:07;4.68;;;1.08;;
32186;SDS011;18686;53.084;8.872;2024-03-29T06:12:35;6.43;;;1.23;;
32186;SDS011;18686;53.084;8.872;2024-03-29T06:15:04;3.47;;;0.90;;
32186;SDS011;18686;53.084;8.872;2024-03-29T06:17:50;5.20;;;1.10;;
32186;SDS011;18686;53.084;8.872;2024-03-29T06:20:17;5.13;;;1.10;;
32186;SDS011;18686;53.084;8.872;2024-03-29T06:22:46;4.65;;;1.08;;
32186;SDS011;18686;53.084;8.872;2024-03-29T06:25:13;7.80;;;1.00;;
32186;SDS011;18686;53.084;8.872;2024-03-29T06:27:40;5.53;;;0.60;;
32186;SDS011;18686;53.084;8.872;2024-03-29T06:30:13;3.65;;;0.80;;
32186;SDS011;18686;53.084;8.872;2024-03-29T06:32:41;7.90;;;1.92;;
32186;SDS011;18686;53.084;8.872;2024-03-29T06:35:08;2.85;;;0.70;;
32186;SDS011;18686;53.084;8.872;2024-03-29T06:37:35;2.50;;;0.70;;
32186;SDS011;18686;53.084;8.872;2024-03-29T06:40:05;2.28;;;0.60;;
32186;SDS011;18686;53.084;8.872;2024-03-29T06:42:34;6.43;;;1.45;;
32186;SDS011;18686;53.084;8.872;2024-03-29T06:45:02;4.00;;;0.75;;
32186;SDS011;18686;53.084;8.872;2024-03-29T06:47:31;3.80;;;0.65;;
32186;SDS011;18686;53.084;8.872;2024-03-29T06:49:58;3.65;;;1.02;;
32186;SDS011;18686;53.084;8.872;2024-03-29T06:52:25;1.60;;;0.47;;
32186;SDS011;18686;53.084;8.872;2024-03-29T06:54:53;7.50;;;1.13;;
32186;SDS011;18686;53.084;8.872;2024-03-29T06:57:21;3.83;;;0.68;;
32186;SDS011;18686;53.084;8.872;2024-03-29T06:59:51;3.45;;;0.65;;
32186;SDS011;18686;53.084;8.872;2024-03-29T07:02:19;6.93;;;1.77;;
32186;SDS011;18686;53.084;8.872;2024-03-29T07:04:46;2.90;;;0.68;;
32186;SDS011;18686;53.084;8.872;2024-03-29T07:07:13;3.17;;;1.20;;
32186;SDS011;18686;53.084;8.872;2024-03-29T07:09:41;5.65;;;0.75;;
32186;SDS011;18686;53.084;8.872;2024-03-29T07:12:08;6.97;;;0.88;;
32186;SDS011;18686;53.084;8.872;2024-03-29T07:14:36;3.28;;;0.82;;
32186;SDS011;18686;53.084;8.872;2024-03-29T07:17:04;2.83;;;0.73;;
32186;SDS011;18686;53.084;8.872;2024-03-29T07:19:31;1.38;;;0.50;;
32186;SDS011;18686;53.084;8.872;2024-03-29T07:21:58;3.50;;;0.70;;
32186;SDS011;18686;53.084;8.872;2024-03-29T07:24:26;2.90;;;0.70;;
32186;SDS011;18686;53.084;8.872;2024-03-29T07:26:53;2.60;;;0.55;;
32186;SDS011;18686;53.084;8.872;2024-03-29T07:29:20;4.15;;;0.57;;
32186;SDS011;18686;53.084;8.872;2024-03-29T07:31:49;3.70;;;0.80;;
32186;SDS011;18686;53.084;8.872;2024-03-29T07:34:16;2.45;;;0.90;;
32186;SDS011;18686;53.084;8.872;2024-03-29T07:36:44;2.65;;;0.50;;
32186;SDS011;18686;53.084;8.872;2024-03-29T07:39:11;5.18;;;0.75;;
32186;SDS011;18686;53.084;8.872;2024-03-29T07:41:38;3.60;;;0.70;;
32186;SDS011;18686;53.084;8.872;2024-03-29T07:44:05;4.05;;;0.95;;
32186;SDS011;18686;53.084;8.872;2024-03-29T07:46:34;3.90;;;0.70;;
32186;SDS011;18686;53.084;8.872;2024-03-29T07:49:04;3.25;;;0.70;;
32186;SDS011;18686;53.084;8.872;2024-03-29T07:51:32;3.00;;;0.80;;
32186;SDS011;18686;53.084;8.872;2024-03-29T07:53:59;3.47;;;1.02;;
32186;SDS011;18686;53.084;8.872;2024-03-29T07:56:26;4.35;;;1.58;;
32186;SDS011;18686;53.084;8.872;2024-03-29T07:58:53;6.45;;;1.35;;
32186;SDS011;18686;53.084;8.872;2024-03-29T08:01:21;2.38;;;1.15;;
32186;SDS011;18686;53.084;8.872;2024-03-29T08:03:50;2.35;;;1.20;;
32186;SDS011;18686;53.084;8.872;2024-03-29T08:06:20;3.60;;;0.80;;
32186;SDS011;18686;53.084;8.872;2024-03-29T08:08:48;2.55;;;0.70;;
32186;SDS011;18686;53.084;8.872;2024-03-29T08:11:16;3.20;;;0.55;;
32186;SDS011;18686;53.084;8.872;2024-03-29T08:13:44;3.25;;;0.47;;
32186;SDS011;18686;53.084;8.872;2024-03-29T08:16:11;2.20;;;0.63;;
32186;SDS011;18686;53.084;8.872;2024-03-29T08:18:39;1.63;;;0.60;;
32186;SDS011;18686;53.084;8.872;2024-03-29T08:21:06;2.58;;;1.83;;
32186;SDS011;18686;53.084;8.872;2024-03-29T08:23:39;3.53;;;0.57;;
32186;SDS011;18686;53.084;8.872;2024-03-29T08:26:06;4.43;;;0.75;;
32186;SDS011;18686;53.084;8.872;2024-03-29T08:28:34;3.38;;;0.60;;
32186;SDS011;18686;53.084;8.872;2024-03-29T08:31:04;1.33;;;0.40;;
32186;SDS011;18686;53.084;8.872;2024-03-29T08:33:34;2.03;;;0.60;;
32186;SDS011;18686;53.084;8.872;2024-03-29T08:36:03;3.63;;;0.65;;
32186;SDS011;18686;53.084;8.872;2024-03-29T08:38:31;4.95;;;0.80;;
32186;SDS011;18686;53.084;8.872;2024-03-29T08:41:00;3.53;;;1.02;;
32186;SDS011;18686;53.084;8.872;2024-03-29T08:43:27;3.90;;;1.23;;
32186;SDS011;18686;53.084;8.872;2024-03-29T08:45:55;2.08;;;0.60;;
32186;SDS011;18686;53.084;8.872;2024-03-29T08:48:22;1.65;;;0.60;;
32186;SDS011;18686;53.084;8.872;2024-03-29T08:50:50;1.52;;;0.47;;
32186;SDS011;18686;53.084;8.872;2024-03-29T08:53:17;2.05;;;0.73;;
32186;SDS011;18686;53.084;8.872;2024-03-29T08:55:45;3.28;;;0.80;;
32186;SDS011;18686;53.084;8.872;2024-03-29T08:58:15;2.00;;;0.68;;
32186;SDS011;18686;53.084;8.872;2024-03-29T09:00:51;3.35;;;0.65;;
32186;SDS011;18686;53.084;8.872;2024-03-29T09:03:19;2.17;;;0.95;;
32186;SDS011;18686;53.084;8.872;2024-03-29T09:05:47;2.40;;;0.75;;
32186;SDS011;18686;53.084;8.872;2024-03-29T09:08:14;2.08;;;0.68;;
32186;SDS011;18686;53.084;8.872;2024-03-29T09:10:41;3.42;;;0.93;;
32186;SDS011;18686;53.084;8.872;2024-03-29T09:13:09;2.65;;;0.70;;
32186;SDS011;18686;53.084;8.872;2024-03-29T09:15:39;3.15;;;0.60;;
32186;SDS011;18686;53.084;8.872;2024-03-29T09:18:07;4.32;;;1.70;;
32186;SDS011;18686;53.084;8.872;2024-03-29T09:20:42;3.42;;;1.00;;
32186;SDS011;18686;53.084;8.872;2024-03-29T09:23:10;2.85;;;0.90;;
32186;SDS011;18686;53.084;8.872;2024-03-29T09:25:42;4.10;;;0.88;;
32186;SDS011;18686;53.084;8.872;2024-03-29T09:28:10;1.83;;;0.70;;
32186;SDS011;18686;53.084;8.872;2024-03-29T09:30:37;4.13;;;0.60;;
32186;SDS011;18686;53.084;8.872;2024-03-29T09:33:06;4.45;;;0.77;;
32186;SDS011;18686;53.084;8.872;2024-03-29T09:35:35;4.88;;;0.77;;
32186;SDS011;18686;53.084;8.872;2024-03-29T09:38:03;2.15;;;0.65;;
32186;SDS011;18686;53.084;8.872;2024-03-29T09:40:30;3.08;;;0.85;;
32186;SDS011;18686;53.084;8.872;2024-03-29T09:42:59;2.13;;;0.70;;
32186;SDS011;18686;53.084;8.872;2024-03-29T09:45:30;3.55;;;0.70;;
32186;SDS011;18686;53.084;8.872;2024-03-29T09:48:00;4.13;;;0.68;;
32186;SDS011;18686;53.084;8.872;2024-03-29T09:50:30;5.85;;;0.95;;
32186;SDS011;18686;53.084;8.872;2024-03-29T09:52:58;2.13;;;0.60;;
32186;SDS011;18686;53.084;8.872;2024-03-29T09:55:25;3.47;;;0.82;;
32186;SDS011;18686;53.084;8.872;2024-03-29T09:57:54;1.77;;;0.55;;
32186;SDS011;18686;53.084;8.872;2024-03-29T10:00:22;2.33;;;0.80;;
32186;SDS011;18686;53.084;8.872;2024-03-29T10:02:50;1.73;;;0.70;;
32186;SDS011;18686;53.084;8.872;2024-03-29T10:05:22;2.88;;;0.80;;
32186;SDS011;18686;53.084;8.872;2024-03-29T10:07:52;4.95;;;1.23;;
32186;SDS011;18686;53.084;8.872;2024-03-29T10:10:20;2.20;;;0.80;;
32186;SDS011;18686;53.084;8.872;2024-03-29T10:12:47;2.17;;;0.80;;
32186;SDS011;18686;53.084;8.872;2024-03-29T10:15:15;4.55;;;1.20;;
32186;SDS011;18686;53.084;8.872;2024-03-29T10:17:47;4.32;;;1.05;;
32186;SDS011;18686;53.084;8.872;2024-03-29T10:20:16;3.28;;;0.90;;
32186;SDS011;18686;53.084;8.872;2024-03-29T10:22:44;2.90;;;0.80;;
32186;SDS011;18686;53.084;8.872;2024-03-29T10:25:13;1.90;;;0.70;;
32186;SDS011;18686;53.084;8.872;2024-03-29T10:27:41;2.90;;;0.88;;
32186;SDS011;18686;53.084;8.872;2024-03-29T10:30:09;1.42;;;0.65;;
32186;SDS011;18686;53.084;8.872;2024-03-29T10:32:42;2.85;;;0.98;;
32186;SDS011;18686;53.084;8.872;2024-03-29T10:35:10;4.90;;;1.10;;
32186;SDS011;18686;53.084;8.872;2024-03-29T10:37:37;2.05;;;0.60;;
32186;SDS011;18686;53.084;8.872;2024-03-29T10:40:07;3.75;;;1.00;;
32186;SDS011;18686;53.084;8.872;2024-03-29T10:42:37;3.28;;;0.73;;
32186;SDS011;18686;53.084;8.872;2024-03-29T10:45:05;2.78;;;1.08;;
32186;SDS011;18686;53.084;8.872;2024-03-29T10:47:33;2.63;;;0.90;;
32186;SDS011;18686;53.084;8.872;2024-03-29T10:50:01;3.20;;;0.90;;
32186;SDS011;18686;53.084;8.872;2024-03-29T10:52:31;3.05;;;0.90;;
32186;SDS011;18686;53.084;8.872;2024-03-29T10:54:58;5.53;;;1.13;;
32186;SDS011;18686;53.084;8.872;2024-03-29T10:57:25;1.40;;;0.60;;
32186;SDS011;18686;53.084;8.872;2024-03-29T10:59:57;3.22;;;1.13;;
32186;SDS011;18686;53.084;8.872;2024-03-29T11:02:33;1.67;;;0.90;;
32186;SDS011;18686;53.084;8.872;2024-03-29T11:05:11;1.38;;;0.52;;
32186;SDS011;18686;53.084;8.872;2024-03-29T11:07:39;3.17;;;0.88;;
32186;SDS011;18686;53.084;8.872;2024-03-29T11:10:11;2.95;;;0.70;;
32186;SDS011;18686;53.084;8.872;2024-03-29T11:12:44;3.20;;;0.80;;
32186;SDS011;18686;53.084;8.872;2024-03-29T11:15:22;1.70;;;0.88;;
32186;SDS011;18686;53.084;8.872;2024-03-29T11:17:55;1.77;;;0.90;;
32186;SDS011;18686;53.084;8.872;2024-03-29T11:20:24;2.95;;;0.90;;
32186;SDS011;18686;53.084;8.872;2024-03-29T11:23:01;5.70;;;0.95;;
32186;SDS011;18686;53.084;8.872;2024-03-29T11:25:39;4.68;;;0.75;;
32186;SDS011;18686;53.084;8.872;2024-03-29T11:28:07;2.05;;;0.75;;
32186;SDS011;18686;53.084;8.872;2024-03-29T11:30:44;2.55;;;1.20;;
32186;SDS011;18686;53.084;8.872;2024-03-29T11:33:29;1.05;;;0.68;;
32186;SDS011;18686;53.084;8.872;2024-03-29T11:36:00;3.22;;;0.90;;
32186;SDS011;18686;53.084;8.872;2024-03-29T11:38:37;1.75;;;0.68;;
32186;SDS011;18686;53.084;8.872;2024-03-29T11:41:05;2.20;;;0.73;;
32186;SDS011;18686;53.084;8.872;2024-03-29T11:43:33;2.63;;;0.77;;
32186;SDS011;18686;53.084;8.872;2024-03-29T11:46:04;1.90;;;0.70;;
32186;SDS011;18686;53.084;8.872;2024-03-29T11:48:32;2.17;;;1.13;;
32186;SDS011;18686;53.084;8.872;2024-03-29T11:51:01;2.05;;;0.82;;
32186;SDS011;18686;53.084;8.872;2024-03-29T11:53:29;7.40;;;1.00;;
32186;SDS011;18686;53.084;8.872;2024-03-29T11:55:57;2.40;;;0.80;;
32186;SDS011;18686;53.084;8.872;2024-03-29T11:58:25;2.83;;;0.90;;
32186;SDS011;18686;53.084;8.872;2024-03-29T12:00:53;1.15;;;0.60;;
32186;SDS011;18686;53.084;8.872;2024-03-29T12:03:24;1.85;;;0.82;;
32186;SDS011;18686;53.084;8.872;2024-03-29T12:05:53;1.95;;;1.15;;
32186;SDS011;18686;53.084;8.872;2024-03-29T12:08:24;2.03;;;0.77;;
32186;SDS011;18686;53.084;8.872;2024-03-29T12:10:52;3.40;;;0.75;;
32186;SDS011;18686;53.084;8.872;2024-03-29T12:13:19;1.85;;;0.65;;
32186;SDS011;18686;53.084;8.872;2024-03-29T12:15:46;2.28;;;0.70;;
32186;SDS011;18686;53.084;8.872;2024-03-29T12:18:14;2.28;;;0.60;;
32186;SDS011;18686;53.084;8.872;2024-03-29T12:20:43;1.38;;;0.60;;
32186;SDS011;18686;53.084;8.872;2024-03-29T12:23:15;5.35;;;0.70;;
32186;SDS011;18686;53.084;8.872;2024-03-29T12:25:43;1.65;;;0.70;;
32186;SDS011;18686;53.084;8.872;2024-03-29T12:28:11;1.67;;;0.60;;
32186;SDS011;18686;53.084;8.872;2024-03-29T12:30:40;2.10;;;0.70;;
32186;SDS011;18686;53.084;8.872;2024-03-29T12:33:08;2.10;;;0.63;;
32186;SDS011;18686;53.084;8.872;2024-03-29T12:35:40;2.40;;;0.90;;
32186;SDS011;18686;53.084;8.872;2024-03-29T12:38:10;1.67;;;0.43;;
32186;SDS011;18686;53.084;8.872;2024-03-29T12:40:40;2.70;;;0.70;;
32186;SDS011;18686;53.084;8.872;2024-03-29T12:43:09;1.92;;;0.75;;
32186;SDS011;18686;53.084;8.872;2024-03-29T12:45:38;3.17;;;0.80;;
32186;SDS011;18686;53.084;8.872;2024-03-29T12:48:10;5.40;;;1.20;;
32186;SDS011;18686;53.084;8.872;2024-03-29T12:50:39;3.00;;;0.90;;
32186;SDS011;18686;53.084;8.872;2024-03-29T12:53:09;2.28;;;0.80;;
32186;SDS011;18686;53.084;8.872;2024-03-29T12:55:39;2.10;;;1.00;;
32186;SDS011;18686;53.084;8.872;2024-03-29T12:58:09;1.73;;;0.90;;
32186;SDS011;18686;53.084;8.872;2024-03-29T13:00:37;2.15;;;0.85;;
32186;SDS011;18686;53.084;8.872;2024-03-29T13:03:05;2.88;;;0.82;;
32186;SDS011;18686;53.084;8.872;2024-03-29T13:05:37;3.45;;;0.80;;
32186;SDS011;18686;53.084;8.872;2024-03-29T13:08:07;2.90;;;0.88;;
32186;SDS011;18686;53.084;8.872;2024-03-29T13:10:36;1.50;;;0.93;;
32186;SDS011;18686;53.084;8.872;2024-03-29T13:13:04;3.42;;;0.80;;
32186;SDS011;18686;53.084;8.872;2024-03-29T13:15:32;0.95;;;0.75;;
32186;SDS011;18686;53.084;8.872;2024-03-29T13:18:01;1.70;;;0.90;;
32186;SDS011;18686;53.084;8.872;2024-03-29T13:20:30;1.38;;;0.60;;
32186;SDS011;18686;53.084;8.872;2024-03-29T13:22:59;1.48;;;0.80;;
32186;SDS011;18686;53.084;8.872;2024-03-29T13:25:27;1.70;;;1.27;;
32186;SDS011;18686;53.084;8.872;2024-03-29T13:27:55;0.68;;;0.68;;
32186;SDS011;18686;53.084;8.872;2024-03-29T13:30:23;1.58;;;0.80;;
32186;SDS011;18686;53.084;8.872;2024-03-29T13:32:51;2.10;;;0.75;;
32186;SDS011;18686;53.084;8.872;2024-03-29T13:35:20;1.13;;;0.75;;
32186;SDS011;18686;53.084;8.872;2024-03-29T13:37:48;1.67;;;0.80;;
32186;SDS011;18686;53.084;8.872;2024-03-29T13:40:18;0.68;;;0.63;;
32186;SDS011;18686;53.084;8.872;2024-03-29T13:42:47;1.13;;;0.60;;
32186;SDS011;18686;53.084;8.872;2024-03-29T13:45:15;4.30;;;0.98;;
32186;SDS011;18686;53.084;8.872;2024-03-29T13:47:43;1.15;;;0.52;;
32186;SDS011;18686;53.084;8.872;2024-03-29T13:50:11;1.15;;;0.50;;
32186;SDS011;18686;53.084;8.872;2024-03-29T13:52:41;0.88;;;0.50;;
32186;SDS011;18686;53.084;8.872;2024-03-29T13:55:08;0.70;;;0.50;;
32186;SDS011;18686;53.084;8.872;2024-03-29T13:57:36;1.38;;;0.68;;
32186;SDS011;18686;53.084;8.872;2024-03-29T14:00:05;0.95;;;0.60;;
32186;SDS011;18686;53.084;8.872;2024-03-29T14:02:33;2.13;;;0.95;;
32186;SDS011;18686;53.084;8.872;2024-03-29T14:05:01;2.70;;;1.05;;
32186;SDS011;18686;53.084;8.872;2024-03-29T14:07:28;1.38;;;0.82;;
32186;SDS011;18686;53.084;8.872;2024-03-29T14:09:57;0.90;;;0.68;;
32186;SDS011;18686;53.084;8.872;2024-03-29T14:12:25;2.10;;;0.75;;
32186;SDS011;18686;53.084;8.872;2024-03-29T14:14:52;1.35;;;0.60;;
32186;SDS011;18686;53.084;8.872;2024-03-29T14:17:21;1.75;;;0.80;;
32186;SDS011;18686;53.084;8.872;2024-03-29T14:19:51;0.98;;;0.60;;
32186;SDS011;18686;53.084;8.872;2024-03-29T14:22:18;1.58;;;0.85;;
32186;SDS011;18686;53.084;8.872;2024-03-29T14:24:46;1.20;;;0.60;;
32186;SDS011;18686;53.084;8.872;2024-03-29T14:27:13;1.05;;;0.63;;
32186;SDS011;18686;53.084;8.872;2024-03-29T14:29:41;2.35;;;0.90;;
32186;SDS011;18686;53.084;8.872;2024-03-29T14:32:10;1.60;;;0.98;;
32186;SDS011;18686;53.084;8.872;2024-03-29T14:34:38;0.68;;;0.68;;
32186;SDS011;18686;53.084;8.872;2024-03-29T14:39:41;2.15;;;0.90;;
32186;SDS011;18686;53.084;8.872;2024-03-29T14:42:10;3.65;;;1.30;;
32186;SDS011;18686;53.084;8.872;2024-03-29T14:44:47;1.95;;;1.00;;
32186;SDS011;18686;53.084;8.872;2024-03-29T14:47:14;1.05;;;0.80;;
32186;SDS011;18686;53.084;8.872;2024-03-29T14:49:44;1.33;;;1.00;;
32186;SDS011;18686;53.084;8.872;2024-03-29T14:52:11;2.08;;;1.10;;
32186;SDS011;18686;53.084;8.872;2024-03-29T14:54:38;1.20;;;1.10;;
32186;SDS011;18686;53.084;8.872;2024-03-29T14:57:06;1.55;;;1.17;;